This is the latest recevied weather packets stored in our database for station/object OH2NJR. If no packets are shown the sender has not sent any weather packets the latest 10 day(s).
| Time | Temp. | Humidity | Pressure | Rain* | Wind** | Luminosity | Snow |
|---|---|---|---|---|---|---|---|
| 1777654153 | 13.89° C | 53% | 1016.3 hPa | 0 mm | - | - | - |
| 1777653054 | 13.89° C | 51% | - | 0 mm | - | - | - |
| 1777653048 | 13.89° C | 54% | 1016.3 hPa | 0 mm | - | - | - |
| 1777651989 | 13.89° C | 54% | 1016.4 hPa | 0 mm | - | - | - |
| 1777650801 | 13.33° C | 55% | - | 0 mm | - | - | - |
| 1777650798 | 13.33° C | 55% | 1016.5 hPa | 0 mm | - | - | - |
| 1777649753 | 13.89° C | 55% | 1016.6 hPa | 0 mm | - | - | - |
| 1777648738 | 13.33° C | 57% | 1016.6 hPa | 0 mm | - | - | - |
| 1777647589 | 13.33° C | 56% | 1016.8 hPa | 0 mm | - | - | - |
| 1777646529 | 13.33° C | 57% | 1017.1 hPa | 0 mm | - | - | - |
| 1777646526 | 13.33° C | 57% | 1017.1 hPa | 0 mm | - | - | - |
| 1777645424 | 12.78° C | 58% | 1017.2 hPa | 0 mm | - | - | - |
| 1777644328 | 12.78° C | 57% | 1017.3 hPa | 0 mm | - | - | - |
| 1777643228 | 13.33° C | 55% | 1017.5 hPa | 0 mm | - | - | - |
| 1777642070 | 13.33° C | 55% | 1017.7 hPa | 0 mm | - | - | - |
| 1777640984 | 13.33° C | 55% | 1017.7 hPa | 0 mm | - | - | - |
| 1777639868 | 12.78° C | 58% | 1018.7 hPa | 0 mm | - | - | - |
| 1777638875 | 11.67° C | 61% | 1018.7 hPa | 0 mm | - | - | - |
| 1777637749 | 10.56° C | 66% | 1018.8 hPa | 0 mm | - | - | - |
| 1777636640 | - | - | - | - | - | - | - |
| 1777636637 | 11.67° C | 62% | 1019.1 hPa | 0 mm | - | - | - |
| 1777636633 | 11.67° C | 62% | 1019.1 hPa | 0 mm | - | - | - |
| 1777635549 | 12.22° C | 61% | 1019.1 hPa | 0 mm | - | - | - |
| 1777634529 | 12.78° C | 59% | 1019.2 hPa | 0 mm | - | - | - |
| 1777633434 | 12.78° C | 60% | 1019.4 hPa | 0 mm | - | - | - |
* Rain latest hour (hover to see other rain measurements)
** Current wind speed in m/s (hover to see current wind gust speed)